Latest Weather Observations for Yeppoon

IDQ60801

Issued at 10:35 pm EST Thursday 24 April 2014 (issued every 30 minutes, with the page automatically refreshed every 10 minutes)

About weather observations | Map of weather stations | Latest weather observations for QLD | Other Formats
Station Details ID: 033294 Name: YEPPOON THE ESPLANADE Lat: -23.14 Lon: 150.75 Height: 5.5 m
Data from the previous 72 hours. | See also: Recent months at Yeppoon
Date/Time
EST
Temp
°C
App
Temp
°C
Dew
Point
Rel
Hum
%
Delta-T
°C
Wind Press
QNH
hPa
Press
MSL
hPa
Rain
since 9 am
mm
Dir
 
Spd
km/h
Gust
km/h
Spd
kts
Gust
kts
24/10:30pm 20.8 23.1 19.9 95 0.6 SW 7 7 4 4 1015.4 - 0.2
24/10:00pm 21.1 23.4 19.8 92 0.8 SW 7 9 4 5 1015.5 - 0.2
24/09:30pm 21.7 25.5 20.1 91 1.0 CALM 0 4 0 2 1015.6 - 0.2
24/09:00pm 22.3 24.9 20.1 87 1.4 SSE 6 9 3 5 1015.5 1015.5 0.2
24/08:30pm 23.5 26.2 20.6 84 1.9 ESE 7 11 4 6 1015.3 - 0.2
24/08:00pm 23.9 25.3 20.4 81 2.3 E 13 17 7 9 1015.1 - 0.2
24/07:30pm 23.9 25.2 20.2 80 2.4 E 13 17 7 9 1014.9 - 0.2
24/07:00pm 23.7 25.5 20.3 81 2.2 E 11 17 6 9 1014.7 - 0.2
24/06:30pm 23.8 25.2 20.4 81 2.2 E 13 19 7 10 1014.4 - 0.2
24/06:00pm 23.8 25.2 20.4 81 2.2 E 13 17 7 9 1014.0 1014.0 0.2
24/05:30pm 23.9 25.1 20.7 82 2.1 E 15 19 8 10 1013.8 - 0.2
24/05:00pm 24.1 25.5 21.1 83 2.0 E 15 22 8 12 1013.7 - 0.2
24/04:30pm 24.9 26.2 21.6 82 2.2 E 17 22 9 12 1013.5 - 0.2
24/04:00pm 24.5 26.0 21.3 82 2.1 E 15 20 8 11 1013.2 - 0.2
24/03:30pm 24.5 25.3 21.3 82 2.1 E 19 22 10 12 1013.1 - 0.2
24/03:00pm 24.6 26.5 21.3 82 2.2 E 13 17 7 9 1013.1 1013.1 0.2
24/02:30pm 24.6 25.9 20.8 79 2.5 E 15 22 8 12 1013.1 - 0.2
24/02:00pm 24.7 25.2 20.1 75 3.0 E 17 22 9 12 1013.2 - 0.2
24/01:30pm 24.9 25.4 20.9 78 2.6 E 19 24 10 13 1013.4 - 0.2
24/01:00pm 25.3 26.1 20.7 75 3.0 E 17 22 9 12 1013.7 - 0.2
24/12:30pm 25.4 27.0 20.7 75 3.1 ESE 13 20 7 11 1014.3 - 0.2
24/12:00pm 24.9 26.4 20.6 77 2.8 ESE 13 20 7 11 1014.6 1014.6 0.2
24/11:30am 24.0 26.1 20.9 83 2.0 SSE 11 20 6 11 1015.1 - 0.2
24/11:00am 23.7 25.9 21.1 85 1.7 SSE 11 19 6 10 1015.6 - 0.2
24/10:30am 23.2 25.5 21.4 90 1.2 S 11 17 6 9 1016.2 - 0.2
24/10:00am 22.5 25.4 21.1 92 0.9 SSE 7 11 4 6 1016.3 - 0.2
24/09:30am 21.8 23.9 20.9 95 0.6 SSE 11 15 6 8 1016.4 - 0.2
24/09:00am 21.7 22.6 20.8 95 0.6 ESE 17 30 9 16 1016.5 1016.5 8.2
24/08:30am 21.2 23.0 20.4 95 0.5 SSE 11 15 6 8 1016.0 - 8.2
24/08:00am 21.1 22.1 20.3 95 0.5 WSW 15 20 8 11 1016.4 - 7.4
24/07:30am 21.3 23.1 20.4 95 0.6 SSW 11 15 6 8 1016.0 - 5.8
24/07:00am 21.3 25.2 20.4 95 0.6 CALM 0 0 0 0 1014.9 - 5.8
24/06:30am 21.1 23.2 20.2 95 0.6 WSW 9 13 5 7 1015.1 - 5.8
24/06:00am 21.1 23.6 20.2 95 0.6 S 7 11 4 6 1014.5 1014.5 5.8
24/05:30am 20.9 24.2 20.0 95 0.6 SW 2 9 1 5 1014.4 - 5.8
24/05:00am 21.1 23.6 19.8 92 0.8 SSW 6 7 3 4 1014.2 - 5.6
24/04:30am 21.3 24.6 19.9 92 0.9 W 2 9 1 5 1014.6 - 5.6
24/04:00am 22.6 24.1 19.8 84 1.8 ENE 11 15 6 8 1014.1 - 5.6
24/03:30am 22.3 24.4 20.1 87 1.4 E 9 13 5 7 1014.6 - 5.6
24/03:00am 22.3 24.8 20.3 88 1.3 E 7 13 4 7 1014.5 1014.5 5.6
24/02:30am 22.2 22.1 19.9 87 1.5 NE 20 28 11 15 1014.3 - 5.6
24/02:00am 22.6 22.5 19.6 83 1.9 NE 19 22 10 12 1014.8 - 5.4
24/01:30am 22.6 23.7 18.8 79 2.4 E 11 17 6 9 1015.2 - 5.4
24/01:00am 22.5 23.5 19.5 83 1.9 ENE 13 19 7 10 1015.4 - 5.4
24/12:30am 22.2 23.2 19.4 84 1.8 E 13 17 7 9 1015.9 - 5.4
24/12:00am 21.9 23.5 19.9 88 1.3 E 11 15 6 8 1016.4 1016.4 5.4
 
Date/Time
EST
Temp
°C
App
Temp
°C
Dew
Point
Rel
Hum
%
Delta-T
°C
Wind Press
QNH
hPa
Press
MSL
hPa
Rain
since 9 am
mm
Dir
 
Spd
km/h
Gust
km/h
Spd
kts
Gust
kts
23/11:30pm 22.2 23.7 19.7 86 1.6 E 11 17 6 9 1017.0 - 5.2
23/11:00pm 22.8 23.4 18.5 77 2.7 ENE 13 19 7 10 1017.1 - 5.2
23/10:30pm 22.8 22.8 19.8 83 1.9 NE 19 22 10 12 1017.1 - 5.2
23/10:00pm 22.7 24.5 20.4 87 1.5 E 11 17 6 9 1017.3 - 5.2
23/09:30pm 23.2 24.4 19.8 81 2.2 E 13 19 7 10 1017.3 - 5.0
23/09:00pm 22.8 24.0 20.0 84 1.8 E 13 20 7 11 1017.0 1017.0 5.0
23/08:30pm 22.9 23.7 19.9 83 1.9 E 15 20 8 11 1017.0 - 5.0
23/08:00pm 22.9 23.4 20.1 84 1.8 E 17 22 9 12 1016.7 - 5.0
23/07:30pm 22.8 23.4 20.2 85 1.7 E 17 24 9 13 1016.4 - 5.0
23/07:00pm 22.4 24.1 20.1 87 1.5 E 11 19 6 10 1016.2 - 5.0
23/06:30pm 22.5 24.0 20.6 89 1.2 E 13 19 7 10 1015.7 - 5.0
23/06:00pm 22.2 22.5 20.3 89 1.2 E 19 24 10 13 1015.3 1015.3 5.0
23/05:30pm 22.2 22.5 20.7 91 1.0 ENE 20 32 11 17 1015.3 - 4.8
23/05:00pm 22.3 22.8 21.1 93 0.8 E 20 26 11 14 1015.4 - 4.2
23/04:30pm 22.7 24.4 21.6 93 0.7 NE 15 20 8 11 1015.0 - 1.8
23/04:00pm 23.0 24.6 21.5 91 1.0 NE 15 19 8 10 1015.1 - 1.2
23/03:30pm 23.0 25.3 21.3 90 1.1 NE 11 15 6 8 1014.9 - 0.8
23/03:00pm 23.3 25.3 20.7 85 1.7 ENE 11 17 6 9 1015.0 1015.0 0.8
23/02:30pm 24.0 27.3 21.9 88 1.4 SE 7 11 4 6 1014.5 - 0.6
23/02:00pm 23.4 27.9 21.6 90 1.2 CALM 0 6 0 3 1014.7 - 0.6
23/01:30pm 22.7 25.8 21.0 90 1.1 SE 6 7 3 4 1015.1 - 0.6
23/01:00pm 23.0 25.5 21.0 88 1.3 SSE 9 15 5 8 1015.7 - 0.4
23/12:30pm 22.6 24.8 21.1 91 1.0 SE 11 17 6 9 1016.1 - 0.4
23/12:00pm 23.4 24.7 20.8 85 1.7 ESE 15 22 8 12 1016.6 1016.6 0.0
23/11:30am 24.0 26.3 21.4 85 1.7 ESE 11 15 6 8 1016.8 - 0.0
23/11:00am 24.0 26.7 21.3 85 1.8 SSE 9 15 5 8 1016.9 - 0.0
23/10:30am 23.5 26.2 21.4 88 1.4 ESE 9 13 5 7 1017.4 - 0.0
23/10:00am 23.0 24.5 21.2 89 1.2 E 15 20 8 11 1017.7 - 0.0
23/09:30am 22.9 24.8 20.6 87 1.5 SSE 11 15 6 8 1017.6 - 0.0
23/09:00am 22.2 24.1 20.5 90 1.1 S 11 17 6 9 1017.4 1017.4 0.8
23/08:30am 21.5 22.8 20.1 92 0.9 S 13 20 7 11 1017.4 - 0.8
23/08:00am 21.3 23.3 20.0 92 0.8 SSW 9 15 5 8 1017.4 - 0.8
23/07:30am 21.5 23.2 20.1 92 0.9 S 11 19 6 10 1017.2 - 0.8
23/07:00am 21.9 22.5 19.5 86 1.5 SSW 15 20 8 11 1017.0 - 0.4
23/06:30am 22.1 23.8 19.4 85 1.7 S 9 17 5 9 1016.6 - 0.4
23/06:00am 22.6 24.8 19.6 83 1.9 S 7 9 4 5 1016.7 1016.7 0.4
23/05:30am 23.9 24.7 19.0 74 3.1 SE 13 22 7 12 1016.6 - 0.4
23/05:00am 24.5 24.7 19.3 73 3.3 E 17 22 9 12 1016.1 - 0.4
23/04:30am 24.5 24.1 18.8 70 3.6 E 19 24 10 13 1016.2 - 0.4
23/04:00am 24.5 25.3 19.0 71 3.5 E 13 19 7 10 1016.8 - 0.4
23/03:30am 24.4 25.5 19.6 74 3.1 ESE 13 20 7 11 1016.4 - 0.4
23/03:00am 24.4 25.0 19.4 73 3.2 E 15 26 8 14 1015.9 1015.9 0.4
23/02:30am 24.5 24.3 19.3 73 3.3 E 19 22 10 12 1016.0 - 0.4
23/02:00am 24.3 24.5 19.3 73 3.2 E 17 22 9 12 1016.5 - 0.4
23/01:30am 24.3 24.4 19.1 73 3.3 E 17 24 9 13 1016.6 - 0.4
23/01:00am 24.2 24.5 19.7 76 2.9 E 17 22 9 12 1016.9 - 0.4
23/12:30am 24.4 24.6 19.4 73 3.2 E 17 24 9 13 1017.9 - 0.4
23/12:00am 23.3 24.4 19.7 80 2.3 SE 13 17 7 9 1017.8 1017.8 0.4
 
Date/Time
EST
Temp
°C
App
Temp
°C
Dew
Point
Rel
Hum
%
Delta-T
°C
Wind Press
QNH
hPa
Press
MSL
hPa
Rain
since 9 am
mm
Dir
 
Spd
km/h
Gust
km/h
Spd
kts
Gust
kts
22/11:30pm 24.8 25.4 19.5 72 3.4 E 15 19 8 10 1018.2 - 0.0
22/11:00pm 24.8 24.9 19.2 71 3.6 ENE 17 22 9 12 1017.5 - 0.0
22/10:30pm 24.5 25.0 19.2 72 3.4 E 15 19 8 10 1017.9 - 0.0
22/10:00pm 24.4 25.0 18.5 69 3.7 E 13 19 7 10 1018.1 - 0.0
22/09:30pm 24.5 25.1 18.5 69 3.8 E 13 17 7 9 1018.5 - 0.0
22/09:00pm 24.4 25.2 18.2 68 3.9 E 11 17 6 9 1018.6 1018.6 0.0
22/08:30pm 24.4 24.8 18.2 68 3.9 E 13 20 7 11 1018.4 - 0.0
22/08:00pm 24.4 24.4 18.2 68 3.9 E 15 19 8 10 1018.3 - 0.0
22/07:30pm 24.5 24.6 18.3 68 3.9 E 15 22 8 12 1018.2 - 0.0
22/07:00pm 24.6 24.1 17.9 66 4.2 E 17 24 9 13 1017.9 - 0.0
22/06:30pm 24.7 24.1 18.4 68 4.0 E 19 26 10 14 1017.4 - 0.0
22/06:00pm 25.0 24.3 18.2 66 4.3 E 19 26 10 14 1017.3 1017.3 0.0
22/05:30pm 25.0 24.4 18.5 67 4.1 E 19 26 10 14 1017.4 - 0.0
22/05:00pm 25.2 24.5 18.2 65 4.4 E 19 24 10 13 1017.3 - 0.0
22/04:30pm 25.4 24.9 18.6 66 4.3 E 19 26 10 14 1017.0 - 0.0
22/04:00pm 25.8 25.3 18.6 64 4.6 E 19 26 10 14 1016.9 - 0.0
22/03:30pm 25.8 25.6 18.6 64 4.6 E 17 24 9 13 1016.8 - 0.0
22/03:00pm 26.2 26.1 17.8 60 5.3 E 15 20 8 11 1017.1 1017.1 0.0
22/02:30pm 26.4 26.2 17.6 58 5.5 ENE 15 22 8 12 1017.2 - 0.0
22/02:00pm 26.3 25.8 17.7 59 5.4 ENE 17 22 9 12 1017.3 - 0.0
22/01:30pm 26.8 26.9 18.3 59 5.4 ENE 15 20 8 11 1017.6 - 0.0
22/01:00pm 26.6 26.2 18.1 59 5.4 ENE 17 22 9 12 1017.9 - 0.0
22/12:30pm 26.6 25.4 17.1 56 5.9 E 19 22 10 12 1018.1 - 0.0
22/12:00pm 26.4 25.6 17.1 56 5.8 E 17 24 9 13 1018.5 1018.5 0.0
22/11:30am 26.1 25.1 16.5 55 5.9 E 17 22 9 12 1018.9 - 0.0
22/11:00am 25.2 24.2 17.5 62 4.8 E 19 22 10 12 1019.3 - 0.0
22/10:30am 24.4 26.0 19.9 76 2.9 ESE 11 17 6 9 1019.6 - 0.0
22/10:00am 23.3 26.3 19.2 78 2.6 S 2 7 1 4 1019.9 - 0.0
22/09:30am 23.0 23.7 18.9 78 2.6 SSE 13 17 7 9 1020.1 - 0.0
22/09:00am 21.9 23.0 18.0 78 2.4 SW 9 13 5 7 1020.0 1020.0 0.0
22/08:30am 20.7 21.5 17.4 81 2.0 WSW 9 13 5 7 1020.0 - 0.0
22/08:00am 20.1 20.7 16.8 81 2.0 SW 9 13 5 7 1019.6 - 0.0
22/07:30am 19.2 19.3 16.4 84 1.7 W 11 13 6 7 1019.4 - 0.0
22/07:00am 18.3 18.1 15.6 84 1.6 W 11 17 6 9 1019.3 - 0.0
22/06:30am 18.2 18.0 15.6 85 1.5 W 11 17 6 9 1019.1 - 0.0
22/06:00am 18.8 19.0 15.8 83 1.8 SW 9 17 5 9 1018.9 1018.9 0.0
22/05:30am 18.6 18.8 15.7 83 1.7 SW 9 13 5 7 1018.7 - 0.0
22/05:00am 18.1 17.6 15.0 82 1.8 W 11 15 6 8 1018.7 - 0.0
22/04:30am 18.4 17.2 15.0 80 2.0 W 15 17 8 9 1018.4 - 0.0
22/04:00am 19.2 19.7 15.1 77 2.4 W 6 9 3 5 1018.3 - 0.0
22/03:30am 20.1 20.8 15.5 75 2.7 SW 6 11 3 6 1018.3 - 0.0
22/03:00am 22.2 22.8 15.9 67 3.8 SSE 7 11 4 6 1018.2 1018.2 0.0
22/02:30am 23.8 23.2 15.7 60 4.9 E 13 20 7 11 1018.3 - 0.0
22/02:00am 24.1 23.1 16.6 63 4.6 E 17 22 9 12 1018.6 - 0.0
22/01:30am 24.3 23.0 16.8 63 4.6 E 19 28 10 15 1018.9 - 0.0
22/01:00am 24.2 23.3 16.9 63 4.5 E 17 22 9 12 1019.2 - 0.0
22/12:30am 24.3 23.2 16.4 61 4.8 E 17 24 9 13 1019.3 - 0.0
22/12:00am 24.4 23.1 16.9 63 4.6 ENE 19 24 10 13 1019.5 1019.5 0.0
 
Date/Time
EST
Temp
°C
App
Temp
°C
Dew
Point
Rel
Hum
%
Delta-T
°C
Wind Press
QNH
hPa
Press
MSL
hPa
Rain
since 9 am
mm
Dir
 
Spd
km/h
Gust
km/h
Spd
kts
Gust
kts
21/11:30pm 24.5 23.4 17.4 64 4.4 E 19 26 10 14 1019.6 - 0.0
21/11:00pm 24.6 24.1 17.7 65 4.3 E 17 24 9 13 1019.7 - 0.0

Other Formats:

Comma delimited format used in spreadsheet applications
http://www.bom.gov.au/fwo/IDQ60801/IDQ60801.94373.axf

JavaScript Object Notation format (JSON) in row-major order
http://www.bom.gov.au/fwo/IDQ60801/IDQ60801.94373.json